Impacts TAF Board INFO
FOR SITUATIONAL AWARENESS. NOT TO BE USED FOR FLIGHT PLANNING PURPOSES.
IDs:

KRSW - Ft Myers/SW Florida, FL, US

Issued at 0949 UTC 22 May 2018
Updated at 0956 UTC 22 May 2018
Potential Impact None Slight Moderate High
Time0953Z 22/10Z 22/11Z 22/12Z 22/13Z 22/14Z 22/15Z 22/16Z 22/17Z 22/18Z 22/19Z 22/20Z 22/21Z 22/22Z>>
Type OBS PRVL
  [TEMP]  
PRVL
  [TEMP]  
PRVL
  [TEMP]  
PRVL
  [TEMP]  
PRVL PRVL PRVL PRVL PRVL PRVL PRVL PRVL PRVL
VIS 10 >6 >6 >6 >6 >6 >6 >6 >6 >6 >6 >6 >6 >6
CIG 25 250
  [25]  
250
  [25]  
250
  [25]  
250
  [25]  
120 120 120 120 120 120 120 120 120
Cover BKN BKN
  [BKN]  
BKN
  [BKN]  
BKN
  [BKN]  
BKN
  [BKN]  
BKN BKN BKN BKN BKN BKN BKN BKN BKN
FltCat MVFR VFR
  [MVFR]  
VFR
  [MVFR]  
VFR
  [MVFR]  
VFR
  [MVFR]  
VFR VFR VFR VFR VFR VFR VFR VFR VFR
WX -- --
  [--]  
--
  [--]  
--
  [--]  
--
  [--]  
-- -- -- -- VCTS VCTS VCTS VCTS VCTS
WDir 80 90
[90]
90
[90]
90
[90]
90
[90]
120 120 120 120 120 120 120 120 120
WSpd 3 5
  [5]  
5
  [5]  
5
  [5]  
5
  [5]  
12 12 12 12 14 14 14 14 14
WGst -- --
  [--]  
--
  [--]  
--
  [--]  
--
  [--]  
-- -- -- -- -- -- -- -- --

Raw TAF
KRSW 220949Z 2210/2306 09005KT P6SM SCT025 SCT120 BKN250
  TEMPO 2210/2214 BKN025
  FM221400 12012KT P6SM SCT025 BKN120
  FM221800 12014KT P6SM VCTS SCT035CB BKN120
  FM230000 11006KT P6SM VCSH SCT025 BKN080


Raw METAR
KRSW 220953Z 08003KT 10SM FEW019 BKN025 23/23 A3001 RMK AO2 SLP161 T02280228
KRSW 220943Z 00000KT 10SM FEW019 BKN025 23/23 A3002 RMK AO2 T02280228
KRSW 220853Z 10003KT 10SM CLR 23/23 A3001 RMK AO2 SLP159 T02280228 56004
KRSW 220753Z 12004KT 10SM FEW060 23/23 A3001 RMK AO2 SLP161 T02280228
KRSW 220728Z 10004KT 10SM FEW027 23/23 A3001 RMK AO2 T02330228
KRSW 220653Z 10005KT 10SM BKN027 23/23 A3001 RMK AO2 SLP161 T02330228

METAR Board
Radar Display
Forecast Discussion

FOR SITUATIONAL AWARENESS. NOT TO BE USED FOR FLIGHT PLANNING PURPOSES.